METAR stanice u blizini

 

LYBE - Beograd / Surčin, Srbija
Ažurirano: 26/01/2023 23:00
Light snow, Oblačno
Light snow, Oblačno
 Pravac vetra SI
Vetar: SI 11 km/h
Temperatura: 0°C
Osećaj hladnoće: -4°C
Tačka rose: 0°C
Vlažnost: 100%
Pritisak: 1015 hPa
Pregled: Light Snow
Oblaci: Oblačno
Vidljivost: 8 km
Cloud details: Mostly Cloudy 122 m
Oblačno 823 m
2023/01/26 22:00 LYBE 262200Z 04006KT 010V070 8000 -SN BKN004 OVC027 00/M00 Q1015 NOSIG
LYBT - Beograd / Batajnica, Srbija
Ažurirano: 26/01/2023 23:00
Light snow, Oblačno
Light snow, Oblačno
 Pravac vetra SSI
Vetar: SSI 11 km/h
Temperatura: 0°C
Osećaj hladnoće: -4°C
Tačka rose: 0°C
Vlažnost: 100%
Pritisak: 1015 hPa
Pregled: Light Snow
Oblaci: Oblačno
Vidljivost: 8 km
Cloud details: Mostly Cloudy 122 m
Oblačno 853 m
2023/01/26 22:00 LYBT 262200Z 02006KT 8000 -SN BKN004 OVC028 00/00 Q1015 NOSIG
LYVR - Vršac, Srbija
Ažurirano: 26/01/2023 23:00
Light snow, Mist, Oblačno
Light snow, Mist, Oblačno
 Pravac vetra SSI
Vetar: SSI 7 km/h
Temperatura: 0°C
Osećaj hladnoće: -3°C
Tačka rose: 0°C
Vlažnost: 100%
Pritisak: 1016 hPa
Pregled: Light snow, Mist
Oblaci: Oblačno
Vidljivost: 5 km
Cloud details: Oblačno 91 m
2023/01/26 22:00 LYVR 262200Z AUTO 02004KT 4900 -SN BR OVC003/// 00/00 Q1016
 
LYKV - Lađevci, Srbija
Ažurirano: 26/01/2023 23:00
Light snow, Pretežno oblačno
Light snow, Pretežno oblačno
 Pravac vetra varies
Vetar: varies 4 km/h
Temperatura: 0°C
Tačka rose: 0°C
Vlažnost: 100%
Pritisak: 1013 hPa
Pregled: Light Snow
Oblaci: Mostly Cloudy
Vidljivost: 6 km
Cloud details: Mostly Cloudy 305 m
Mostly Cloudy 701 m
2023/01/26 22:00 LYKV 262200Z VRB02KT 6000 -SN BKN010 BKN023 M00/M00 Q1013 NOSIG
LYNI - Niš, Srbija
Ažurirano: 26/01/2023 23:00
Light snow, Pretežno oblačno
Light snow, Pretežno oblačno
 Pravac vetra SZ
Vetar: SZ 19 km/h
Temperatura: 0°C
Osećaj hladnoće: -5°C
Tačka rose: -1°C
Vlažnost: 93%
Pritisak: 1011 hPa
Pregled: Light Snow
Oblaci: Mostly Cloudy
Vidljivost: 7 km
Cloud details: Mostly Cloudy 823 m
2023/01/26 22:00 LYNI 262200Z 32010KT 7000 -SN BKN027 M00/M01 Q1011 NOSIG
BKPR - Priština, Srbija
Ažurirano: 26/01/2023 23:30
Mostly Cloudy
Mostly Cloudy
 Pravac vetra S
Vetar: S 20 km/h
Temperatura: -1°C
Osećaj hladnoće: -7°C
Tačka rose: -2°C
Vlažnost: 93%
Pritisak: 1009 hPa
Oblaci: Mostly Cloudy
Vidljivost: 10 km
Cloud details: Few Clouds 305 m
Mostly Cloudy 1219 m
2023/01/26 22:30 BKPR 262230Z 01011KT 9999 FEW010 BKN040 M01/M02 Q1009 NOSIG
 
LHPP - Pecs / Pogany, Hungary
Ažurirano: 26/01/2023 22:58
Light snow, Oblačno
Light snow, Oblačno
 Pravac vetra SI
Vetar: SI 7 km/h
Temperatura: 0°C
Osećaj hladnoće: -3°C
Tačka rose: -1°C
Vlažnost: 93%
Pritisak: 1016 hPa
Pregled: Light Snow
Oblaci: Oblačno
Vidljivost: 5 km
Cloud details: Oblačno 1158 m
2023/01/26 21:58 LHPP 262158Z AUTO 05004KT 4600 -SN OVC038 00/M01 Q1016
LHUD - Szeged, Hungary
Ažurirano: 04/07/2019 01:45
NOT Current
Vedro
Vedro
 Pravac vetra S
Vetar: S 7 km/h
Temperatura: 18°C
Tačka rose: 13°C
Vlažnost: 73%
Pritisak: 1019 hPa
Pregled: Vedro
Vidljivost: greater than 10 km
2019/07/03 23:45 LHUD 032345Z 35004KT CAVOK 18/13 Q1019
LRTR - Timisoara, Romania
Ažurirano: 26/01/2023 23:00
Slaba kiša, Sneg, Delimično oblačno
Slaba kiša, Sneg, Delimično oblačno
 Pravac vetra S
Vetar: S 17 km/h
Temperatura: 0°C
Osećaj hladnoće: -4°C
Tačka rose: 0°C
Vlažnost: 100%
Pritisak: 1015 hPa
Pregled: Slaba kiša, Sneg
Oblaci: Partly Cloudy
Vidljivost: 6 km
2023/01/26 22:00 LRTR 262200Z 01009KT 6000 -RASN NSC 00/00 Q1015
 
LRCV - Craiova, Romania
Ažurirano: 26/01/2023 23:00
Slaba kiša, Sneg, Mist, Oblačno
Slaba kiša, Sneg, Mist, Oblačno
 Pravac vetra ISI
Vetar: ISI 28 km/h
Temperatura: 1°C
Osećaj hladnoće: -5°C
Tačka rose: 0°C
Vlažnost: 93%
Pritisak: 1012 hPa
Pregled: Slaba kiša, Sneg, Mist
Oblaci: Oblačno
Vidljivost: 2 km
Cloud details: Partly Cloudy 122 m
Mostly Cloudy 183 m
Oblačno 274 m
2023/01/26 22:00 LRCV 262200Z 06015KT 2000 -RASN BR SCT004 BKN006 OVC009 01/00 Q1012
LBSF - Sofia, Bulgaria
Ažurirano: 26/01/2023 23:00
Light snow, Oblačno
Light snow, Oblačno
 Pravac vetra calm
Vetar: Tišina
Temperatura: -1°C
Tačka rose: -1°C
Vlažnost: 100%
Pritisak: 1009 hPa
Pregled: Light Snow
Oblaci: Oblačno
Vidljivost: 5 km
Cloud details: Few Clouds 183 m
Oblačno 732 m
2023/01/26 22:00 LBSF 262200Z AUTO 00000KT 4500 -SN FEW006/// OVC024/// M01/M01 Q1009 TEMPO 3000 SN SCT002
LWSK - Skoplje, Makedonija
Ažurirano: 26/01/2023 23:30
Oblačno
Oblačno
 Pravac vetra SSI
Vetar: SSI 7 km/h
Temperatura: 2°C
Osećaj hladnoće: 0°C
Tačka rose: 1°C
Vlažnost: 93%
Pritisak: 1009 hPa
Oblaci: Oblačno
Vidljivost: 10 km
Cloud details: Mostly Cloudy 701 m
Oblačno 1006 m
2023/01/26 22:30 LWSK 262230Z 02004KT 9999 BKN023 OVC033 02/01 Q1009 NOSIG
 
LYPG - Podgorica, Crna Gora
Ažurirano: 26/01/2023 23:00
Mostly Cloudy
Mostly Cloudy
 Pravac vetra varies
Vetar: varies 4 km/h
Temperatura: 8°C
Tačka rose: 4°C
Vlažnost: 76%
Pritisak: 1007 hPa
Oblaci: Mostly Cloudy
Vidljivost: 10 km
Cloud details: Few Clouds 1219 m
Mostly Cloudy 2134 m
2023/01/26 22:00 LYPG 262200Z VRB02KT 9999 FEW040 BKN070 08/04 Q1007 NOSIG
LQSA - Sarajevo, Bosna i Hercegovina
Ažurirano: 26/01/2023 23:00
Light snow, Oblačno
Light snow, Oblačno
 Pravac vetra ZSZ
Vetar: ZSZ 9 km/h
Temperatura: -1°C
Osećaj hladnoće: -4°C
Tačka rose: -1°C
Vlažnost: 100%
Pritisak: 1011 hPa
Pregled: Light Snow
Oblaci: Oblačno
Vidljivost: 8 km
Cloud details: Oblačno 671 m
2023/01/26 22:00 LQSA 262200Z 30005KT 8000 -SN OVC022 M01/M01 Q1011
LDOS - Osijek, Hrvatksa
Ažurirano: 26/01/2023 23:00
Sneg, Oblačno
Sneg, Oblačno
 Pravac vetra SSI
Vetar: SSI 9 km/h
Temperatura: 0°C
Osećaj hladnoće: -3°C
Tačka rose: 0°C
Vlažnost: 100%
Pritisak: 1016 hPa
Pregled: Sneg
Oblaci: Oblačno
Vidljivost: 3 km
Cloud details: Mostly Cloudy 213 m
Oblačno 610 m
2023/01/26 22:00 LDOS 262200Z 03005KT 3000 SN BKN007 OVC020 00/M00 Q1016